KSQLKAPC

Guest
Details From KSQL - San Carlos
To KAPC - Napa Co
Flight Number -
Tags generated
Created
Modified
Stats Distance 42 nm / 78 km
Max Altitude 4,600 ft / 1,402 m
Waypoints 3
Social Downloads 0
Likes 0
Share VATSIM

Download

Looking for another format? Having issues loading an existing format? Contact us
Advertisement - Login to hide

Notes

Basic altitude profile: - Ascent Rate: 1700ft/min - Ascent Speed: 250kts - Cruise Altitude: 35000ft - Cruise Speed: 420kts - Descent Rate: 1200ft/min - Descent Speed: 250kts Options: - Use NATs: yes - Use PACOTS: yes - Use low airways: yes - Use high airways: yes

Route

KSQL OAK KAPC

ID Type Via Altitude Latitude Longitude Leg Dist Tot Dist Heading (true) Name
O KSQL APT - 0 ft / 0 m 37.51173˚ -122.24939˚ - 0 nm - San Carlos
OAK VOR - 4,600 ft / 1,402 m 37.72592˚ -122.22358˚ 12 nm 12 nm 5° / 5° OAKLAND VORTAC
O KAPC APT - 0 ft / 0 m 38.21339˚ -122.28049˚ 29 nm 42 nm 355° / 355° Napa Co

Altitude Profile

Advertisement - Login to hide

KSQL

Details ICAO KSQL (SQL)
Name San Carlos
Region United States
Timezone America/Los_Angeles (UTC-8.0)
Stats Elevation 5 ft / 2 m (AMSL)
Location 37.511735° -122.249386°
Runways 1
Magnetic Variation 13.421° E

METAR

KSQL 161255Z AUTO 28003KT 10SM CLR 09/07 A2997 RMK AO2

Decode

TAF

Not found

Departure Runways

ID Width Length Bearing (true) Bearing (mag) Surface Threshold Offset Overrun Length
12 75 ft / 23 m 2,619 ft / 798 m 138.39° 124.97° Asphalt 0 ft / 0 m 299 ft / 91 m
30 75 ft / 23 m 2,619 ft / 798 m 318.40° 304.98° Asphalt 0 ft / 0 m 135 ft / 41 m

KAPC

Details ICAO KAPC (APC)
Name Napa Co
Region United States
Timezone America/Los_Angeles (UTC-8.0)
Stats Elevation 35 ft / 11 m (AMSL)
Location 38.213392° -122.280489°
Runways 3
Magnetic Variation 13.578° E

METAR

KAPC 161254Z AUTO 30005KT 10SM CLR 06/02 A2996 RMK AO2 SLP137 T00610022

Decode

TAF

Not found

Destination Runways

ID Width Length Bearing (true) Bearing (mag) Surface Threshold Offset Overrun Length
06 151 ft / 46 m 4,998 ft / 1,523 m 76.68° 63.10° Concrete 0 ft / 0 m 0 ft / 0 m
18L 75 ft / 23 m 2,514 ft / 766 m 200.64° 187.06° Asphalt 0 ft / 0 m 0 ft / 0 m
18R 151 ft / 46 m 5,940 ft / 1,810 m 200.66° 187.08° Asphalt 0 ft / 0 m 0 ft / 0 m
24 151 ft / 46 m 4,998 ft / 1,523 m 256.70° 243.12° Concrete 0 ft / 0 m 0 ft / 0 m
36L 151 ft / 46 m 5,940 ft / 1,810 m 20.66° 7.08° Asphalt 0 ft / 0 m 151 ft / 46 m
36R 75 ft / 23 m 2,514 ft / 766 m 20.64° 7.06° Asphalt 0 ft / 0 m 0 ft / 0 m

Approach Navaids

Runway Type Ident Frequency Range Bearing (true) Bearing (mag) Slope Elevation
36L Localiser IAPC 111.30 MHz 18 nm / 33 km 20.67° 7.09° - 23 ft / 7 m (AMSL)

Popular Alternatives